Center Point, Iowa
Current Conditions -  °F | °C
As of 5:55 PM on Friday 24 Oct 2014 (Local Time) from KVTI Reporting Station
Haze Haze  
Wind Chill: 60°   Ceiling: 700
Heat Index: 60°   Visibility: 3mi
Dew Point: 59°   Wind: 8mph
Humidity: 96%   Direction: 200°SSW
Pressure: 29.91"   Gusts: NA
Location:  42.19°N, 91.79°W
Report Text: KVTI 242255Z AUTO 20007KT 3SM BR BKN007 OVC011 16/15 A2991 RMK AO2 T01570150
Loading
Personal Weather Stations






























Interactive Weather Map
Tropical Storm Tracking
New forecast layout! Learn more

10-Day Weather Forecast

Advertisements
Track Severe Weather on mobile